WetterOnline ( https://www.wetteronline.de )

Wetter aktuell Wolfhagen

Aktuelles Wetter: Schauenburg-Elgershausen (317m)

6-stündlich | Neueste Meldungen
Ortszeit Temperatur Wetter
Di, 12.11. 7:00 3.4° C bewölkt
Di, 12.11. 1:00 2.0° C bedeckt
Mo, 11.11. 19:00 2.1° C bewölkt
Mo, 11.11. 13:00 2.4° C bedeckt
Mo, 11.11. 7:00 1.0° C bedeckt
Mo, 11.11. 1:00 1.6° C bedeckt
So, 10.11. 19:00 2.8° C bedeckt
So, 10.11. 13:00 3.8° C bedeckt
Ortszeit Temperatur Wetter
Di, 12.11. 9:00 3.5° C bedeckt
Di, 12.11. 8:30 3.4° C bewölkt
Di, 12.11. 8:20 3.4° C bewölkt
Di, 12.11. 8:10 3.3° C bedeckt
Di, 12.11. 8:00 3.4° C bedeckt
Di, 12.11. 7:50 3.4° C bedeckt
Di, 12.11. 7:30 3.2° C bedeckt
Di, 12.11. 7:00 3.4° C bewölkt
Ortszeit Relative Feuchte Sichtweite
Di, 12.11. 7:00 84% 35 km
Di, 12.11. 1:00 93% 10 km
Mo, 11.11. 19:00 85% 13 km
Mo, 11.11. 13:00 81% 19 km
Mo, 11.11. 7:00 94% 11 km
Mo, 11.11. 1:00 96% 6 km
So, 10.11. 19:00 97% 6 km
So, 10.11. 13:00 89% 13 km
Ortszeit Relative Feuchte Sichtweite
Di, 12.11. 9:00 87% 30 km
Di, 12.11. 8:30 88% 25 km
Di, 12.11. 8:20 88% -
Di, 12.11. 8:10 89% -
Di, 12.11. 8:00 88% 26 km
Di, 12.11. 7:50 88% -
Di, 12.11. 7:30 89% 23 km
Di, 12.11. 7:00 84% 35 km
Ortszeit Niederschlagsmenge Niederschlagsart
Di, 12.11. 7:00 0.1 l/m2 in 12 Std. -
Di, 12.11. 1:00 0.1 l/m2 in 6 Std. Regen
Mo, 11.11. 19:00 0.0 l/m2 in 12 Std. -
Mo, 11.11. 13:00 0.0 l/m2 in 6 Std. -
Mo, 11.11. 7:00 0.0 l/m2 in 12 Std. -
Mo, 11.11. 1:00 0.0 l/m2 in 6 Std. -
So, 10.11. 19:00 0.0 l/m2 in 12 Std. -
So, 10.11. 13:00 0.0 l/m2 in 6 Std. -
Ortszeit Niederschlagsmenge Niederschlagsart
Di, 12.11. 9:00 0.0 l/m2 in 1 Std. -
Di, 12.11. 8:30 0.0 l/m2 in 1 Std. -
Di, 12.11. 8:20 keine Meldung -
Di, 12.11. 8:10 keine Meldung -
Di, 12.11. 8:00 0.0 l/m2 in 1 Std. -
Di, 12.11. 7:50 keine Meldung -
Di, 12.11. 7:30 0.0 l/m2 in 1 Std. -
Di, 12.11. 7:00 0.0 l/m2 in 1 Std. -
Ortszeit Stärke Spitze Richtung
km/h Bft. km/h Grad Sektor
Di, 12.11. 7:00 9 2 28 200° S
Di, 12.11. 1:00 11 2 32 180° S
Mo, 11.11. 19:00 7 2 29 150° SO
Mo, 11.11. 13:00 17 3 33 160° S
Mo, 11.11. 7:00 13 3 22 150° SO
Mo, 11.11. 1:00 7 2 22 210° SW
So, 10.11. 19:00 6 1 13 150° SO
So, 10.11. 13:00 4 1 11 140° SO
Ortszeit Stärke Spitze Richtung
km/h Bft. km/h Grad Sektor
Di, 12.11. 9:00 14 3 29 170° S
Di, 12.11. 8:30 17 3 26 180° S
Di, 12.11. 8:20 17 3 - 180° S
Di, 12.11. 8:10 14 3 - 170° S
Di, 12.11. 8:00 18 3 29 170° S
Di, 12.11. 7:50 18 3 - 170° S
Di, 12.11. 7:30 11 2 22 170° S
Di, 12.11. 7:00 9 2 26 200° S
Ortszeit Untergrenze Bedeckung Gattung
total tief tief mittel hoch
Di, 12.11. 7:00 510 m 7/8 7/8 - - -
Di, 12.11. 1:00 180 m 8/8 8/8 - - -
Mo, 11.11. 19:00 480 m 8/8 6/8 - - -
Mo, 11.11. 13:00 390 m 8/8 8/8 - - -
Mo, 11.11. 7:00 120 m 8/8 8/8 - - -
Mo, 11.11. 1:00 60 m 8/8 8/8 - - -
So, 10.11. 19:00 60 m 8/8 8/8 - - -
So, 10.11. 13:00 180 m 8/8 8/8 - - -
Ortszeit Bedeckungsgrad in Achtel und Wolkenuntergrenze
Di, 12.11. 9:00 6(330m) 8(630m) 8(900m)
Di, 12.11. 8:30 7(270m) 7(540m)
Di, 12.11. 8:20 7(270m) 7(540m)
Di, 12.11. 8:10 7(270m) 8(570m)
Di, 12.11. 8:00 6(300m) 8(540m)
Di, 12.11. 7:50 6(300m) 8(540m)
Di, 12.11. 7:30 3(300m) 7(540m) 8(690m)
Di, 12.11. 7:00 5(510m) 7(630m) 7(780m)
Ortszeit Luftdruck NN (hPa) Tendenz (hPa in 3 Std.)
Di, 12.11. 7:00 1005 0,0
Di, 12.11. 1:00 1006 - 0,4
Mo, 11.11. 19:00 1006 - 1,5
Mo, 11.11. 13:00 1009 - 2,5
Mo, 11.11. 7:00 1014 - 1,1
Mo, 11.11. 1:00 1016 - 0,4
So, 10.11. 19:00 1017 + 1,5
So, 10.11. 13:00 1014 + 0,6
Ortszeit Luftdruck NN (hPa) Tendenz (hPa in 3 Std.)
Di, 12.11. 9:00 1006 + 0,5
Di, 12.11. 8:30 1006 + 0,4
Di, 12.11. 8:20 1006 keine Meldung
Di, 12.11. 8:10 1006 keine Meldung
Di, 12.11. 8:00 1006 + 0,3
Di, 12.11. 7:50 1006 keine Meldung
Di, 12.11. 7:30 1005 0,0
Di, 12.11. 7:00 1005 0,0
Ortszeit Schneehöhe (cm)
Di, 12.11. 7:00 0
Di, 12.11. 1:00 0
Mo, 11.11. 19:00 0
Mo, 11.11. 13:00 0
Mo, 11.11. 7:00 0
Mo, 11.11. 1:00 0
So, 10.11. 19:00 0
So, 10.11. 13:00 0
Ortszeit Schneehöhe (cm)
Di, 12.11. 9:00 0
Di, 12.11. 8:30 0
Di, 12.11. 8:20 0
Di, 12.11. 8:10 0
Di, 12.11. 8:00 0
Di, 12.11. 7:50 0
Di, 12.11. 7:30 0
Di, 12.11. 7:00 0
Link zu dieser Seite / Seite empfehlen

Das Wetter in ...